Time;durP1;ratioP1;P1;durP2;ratioP2;P2;SDS_P1;SDS_P2;PMS_P1;PMS_P2;Temp;Humidity;BMP_temperature;BMP_pressure;BME280_temperature;BME280_humidity;BME280_pressure;Samples;Min_cycle;Max_cycle;Signal;HPM_P1;HPM_P2
2022/01/25 06:18:01;;;;;;;;;;;;;;;1.85;100.00;100072.13;5904878;23;20962;31
2022/01/25 06:20:28;;;;;;;;;;;;;;;1.84;100.00;100070.47;4828960;29;19982;-67
2022/01/25 06:22:56;;;;;;;;;;;;;;;1.86;100.00;100071.81;4830507;29;19958;-68
2022/01/25 06:25:23;;;;;;;;;;;;;;;1.85;100.00;100070.19;4832129;29;19960;-68
2022/01/25 06:27:51;;;;;;;;;;;;;;;1.85;100.00;100067.44;4835380;29;19957;-67
2022/01/25 06:30:19;;;;;;;;;;;;;;;1.87;100.00;100073.47;4837441;29;19954;-67
2022/01/25 06:32:47;;;;;;;;;;;;;;;1.87;100.00;100073.47;4837391;29;19954;-67
2022/01/25 06:35:15;;;;;;;;;;;;;;;1.88;100.00;100075.09;4837404;29;19960;-68
2022/01/25 06:37:43;;;;;;;;;;;;;;;1.86;100.00;100082.03;4831578;29;19978;-68
2022/01/25 06:40:11;;;;;;;;;;;;;;;1.86;100.00;100074.56;4831490;29;20297;-67
2022/01/25 06:42:39;;;;;;;;;;;;;;;1.86;100.00;100082.03;4829654;29;19962;-68
2022/01/25 06:45:12;;;;;;;;;;;;;;;1.87;100.00;100075.41;4829390;29;19959;-68
2022/01/25 06:47:41;;;;;;;;;;;;;;;1.83;100.00;100074.38;4826778;29;19961;-65
2022/01/25 06:50:09;;;;;;;;;;;;;;;1.90;100.00;100072.06;4808543;29;20026;-68
2022/01/25 06:52:39;;;;;;;;;;;;;;;1.95;100.00;100080.25;4811094;29;19963;-67
2022/01/25 06:55:08;;;;;;;;;;;;;;;1.95;100.00;100081.09;4820596;29;19965;-67
2022/01/25 06:57:35;;;;;;;;;;;;;;;1.93;100.00;100077.78;4821807;29;19973;-67
2022/01/25 07:00:11;;;;;;;;;;;;;;;1.97;100.00;100081.59;4817718;29;19960;-67
2022/01/25 07:02:38;;;;;;;;;;;;;;;1.97;100.00;100073.31;4822506;29;19957;-67
2022/01/25 07:05:06;;;;;;;;;;;;;;;1.97;100.00;100078.84;4823358;29;19957;-67
2022/01/25 07:07:34;;;;;;;;;;;;;;;1.99;100.00;100082.13;4822321;29;19969;-67
2022/01/25 07:10:02;;;;;;;;;;;;;;;1.97;100.00;100083.53;4822249;29;19961;-68
2022/01/25 07:12:29;;;;;;;;;;;;;;;1.96;100.00;100085.47;4821324;29;20026;-67
2022/01/25 07:14:56;;;;;;;;;;;;;;;1.94;100.00;100087.72;4822069;29;19954;-67
2022/01/25 07:17:23;;;;;;;;;;;;;;;2.02;100.00;100096.44;4825987;29;19966;-67
2022/01/25 07:19:51;;;;;;;;;;;;;;;2.02;100.00;100093.69;4821621;29;19981;-67
2022/01/25 07:22:18;;;;;;;;;;;;;;;1.98;100.00;100094.25;4820633;29;19960;-68
2022/01/25 07:24:46;;;;;;;;;;;;;;;1.96;100.00;100106.72;4822597;29;19951;-67
2022/01/25 07:27:14;;;;;;;;;;;;;;;1.92;100.00;100095.47;4820351;29;20205;-67
2022/01/25 07:29:42;;;;;;;;;;;;;;;1.93;100.00;100099.06;4819167;29;19953;-67
2022/01/25 07:32:09;;;;;;;;;;;;;;;1.93;100.00;100102.59;4820232;29;19954;-68
2022/01/25 07:34:37;;;;;;;;;;;;;;;1.93;100.00;100090.78;4822594;29;20249;-67
2022/01/25 07:37:07;;;;;;;;;;;;;;;1.93;100.00;100088.03;4822214;29;19981;-67
2022/01/25 07:39:39;;;;;;;;;;;;;;;1.96;100.00;100090.16;4821545;29;20031;-67
2022/01/25 07:42:06;;;;;;;;;;;;;;;1.93;100.00;100096.28;4809916;29;19963;-67
2022/01/25 07:44:44;;;;;;;;;;;;;;;1.97;100.00;100097.34;4834222;29;20047;-67
2022/01/25 07:47:11;;;;;;;;;;;;;;;1.99;100.00;100106.13;4820947;29;19988;-67
2022/01/25 07:49:56;;;;;;;;;;;;;;;2.05;100.00;100093.91;4819782;29;19952;-67
2022/01/25 07:52:41;;;;;;;;;;;;;;;2.06;100.00;100084.50;4818601;29;19963;-67
2022/01/25 07:55:08;;;;;;;;;;;;;;;2.08;100.00;100086.97;4820598;29;19956;-68
2022/01/25 07:57:37;;;;;;;;;;;;;;;2.05;100.00;100082.06;4819377;29;19973;-68
2022/01/25 08:00:04;;;;;;;;;;;;;;;2.06;100.00;100086.44;4819621;29;19971;-67
2022/01/25 08:02:40;;;;;;;;;;;;;;;2.05;100.00;100084.81;4819429;29;19953;-67
2022/01/25 08:05:20;;;;;;;;;;;;;;;2.02;100.00;100077.13;4817627;29;19956;-67
2022/01/25 08:07:51;;;;;;;;;;;;;;;2.02;100.00;100079.88;4817833;29;20399;-67
2022/01/25 08:10:22;;;;;;;;;;;;;;;1.99;100.00;100070.25;4818627;29;19951;-67
2022/01/25 08:12:51;;;;;;;;;;;;;;;2.01;100.00;100081.81;4819590;29;20517;-68
2022/01/25 08:15:19;;;;;;;;;;;;;;;2.04;100.00;100080.41;4818155;29;19970;-68
2022/01/25 08:17:46;;;;;;;;;;;;;;;2.00;100.00;100083.75;4819785;29;20278;-68
2022/01/25 08:20:18;;;;;;;;;;;;;;;2.09;100.00;100085.84;4816307;29;19987;-69
2022/01/25 08:22:45;;;;;;;;;;;;;;;2.06;100.00;100087.25;4819900;29;20557;-68
2022/01/25 08:25:29;;;;;;;;;;;;;;;2.11;100.00;100094.63;4816888;29;19952;-69
2022/01/25 08:28:14;;;;;;;;;;;;;;;2.16;100.00;100086.28;4817796;29;19984;-70
2022/01/25 08:30:50;;;;;;;;;;;;;;;2.26;100.00;100083.38;4819988;29;19963;-69
2022/01/25 08:33:35;;;;;;;;;;;;;;;2.34;100.00;100079.94;4820811;29;19953;-67
2022/01/25 08:36:09;;;;;;;;;;;;;;;2.35;100.00;100085.16;4818679;29;19957;-68
2022/01/25 08:38:54;;;;;;;;;;;;;;;2.38;100.00;100079.03;4818417;29;19971;-68
2022/01/25 08:41:26;;;;;;;;;;;;;;;2.48;100.00;100078.03;4820321;29;19968;-68
2022/01/25 08:44:00;;;;;;;;;;;;;;;2.53;100.00;100069.69;4816516;29;19969;-69
2022/01/25 08:46:38;;;;;;;;;;;;;;;2.60;100.00;100073.69;4819064;29;19956;-69
2022/01/25 08:49:23;;;;;;;;;;;;;;;2.70;100.00;100069.09;4819430;29;19951;-69
2022/01/25 08:51:50;;;;;;;;;;;;;;;2.73;100.00;100066.56;4819030;29;19952;-69
2022/01/25 08:54:35;;;;;;;;;;;;;;;2.75;100.00;100057.97;4818834;29;20262;-69
2022/01/25 08:57:13;;;;;;;;;;;;;;;2.72;100.00;100061.31;4819288;29;20526;-69
2022/01/25 08:59:41;;;;;;;;;;;;;;;2.74;100.00;100059.09;4817247;29;20877;-69
2022/01/25 09:02:09;;;;;;;;;;;;;;;2.74;100.00;100067.41;4832418;29;19949;-69
2022/01/25 09:04:36;;;;;;;;;;;;;;;2.74;100.00;100068.19;4817346;29;19953;-69
2022/01/25 09:07:03;;;;;;;;;;;;;;;2.78;100.00;100074.78;4819703;29;19954;-69
2022/01/25 09:09:31;;;;;;;;;;;;;;;2.82;100.00;100073.03;4819425;29;19961;-69
2022/01/25 09:11:58;;;;;;;;;;;;;;;2.83;100.00;100069.16;4818869;29;19955;-69
2022/01/25 09:14:26;;;;;;;;;;;;;;;2.85;100.00;100064.13;4818445;29;19963;-69
2022/01/25 09:16:53;;;;;;;;;;;;;;;2.89;100.00;100073.44;4818277;29;19955;-69
2022/01/25 09:19:20;;;;;;;;;;;;;;;2.92;100.00;100072.03;4817538;29;19977;-69
2022/01/25 09:21:48;;;;;;;;;;;;;;;2.90;100.00;100077.84;4818765;29;19961;-69
2022/01/25 09:24:15;;;;;;;;;;;;;;;2.92;100.00;100072.03;4817655;29;19961;-69
2022/01/25 09:26:43;;;;;;;;;;;;;;;2.92;100.00;100072.84;4819041;29;20262;-69
2022/01/25 09:29:10;;;;;;;;;;;;;;;2.90;100.00;100064.03;4817574;29;20027;-69
2022/01/25 09:31:37;;;;;;;;;;;;;;;2.92;100.00;100067.31;4818548;29;19955;-69
2022/01/25 09:34:05;;;;;;;;;;;;;;;2.96;100.00;100067.53;4819492;29;20220;-69
2022/01/25 09:36:33;;;;;;;;;;;;;;;2.94;100.00;100064.25;4818799;29;19960;-69
2022/01/25 09:39:00;;;;;;;;;;;;;;;2.95;100.00;100066.72;4817471;29;19975;-69
2022/01/25 09:41:29;;;;;;;;;;;;;;;2.97;100.00;100063.63;4818399;29;19955;-69
2022/01/25 09:43:56;;;;;;;;;;;;;;;2.95;100.00;100061.19;4818257;29;19952;-68
2022/01/25 09:46:24;;;;;;;;;;;;;;;2.96;100.00;100060.03;4818383;29;19960;-67
2022/01/25 09:48:52;;;;;;;;;;;;;;;2.97;100.00;100058.09;4817230;29;19965;-68
2022/01/25 09:51:20;;;;;;;;;;;;;;;3.06;100.00;100072.84;4822754;29;20243;-69
2022/01/25 09:53:48;;;;;;;;;;;;;;;3.04;100.00;100069.56;4822111;29;19953;-69
2022/01/25 09:56:15;;;;;;;;;;;;;;;3.04;100.00;100069.56;4822131;29;20977;-69
2022/01/25 09:58:44;;;;;;;;;;;;;;;3.05;100.00;100069.28;4820987;29;20295;-69
2022/01/25 10:01:12;;;;;;;;;;;;;;;3.09;100.00;100069.47;4822489;29;19959;-68
2022/01/25 10:03:41;;;;;;;;;;;;;;;3.13;100.00;100068.56;4821163;29;19962;-69
2022/01/25 10:06:17;;;;;;;;;;;;;;;3.16;100.00;100059.66;4820428;29;19967;-69
2022/01/25 10:08:45;;;;;;;;;;;;;;;3.20;100.00;100057.91;4822621;29;20673;-73
2022/01/25 10:11:13;;;;;;;;;;;;;;;3.22;100.00;100060.38;4821475;29;20354;-68
2022/01/25 10:13:43;;;;;;;;;;;;;;;3.20;100.00;100057.13;4822026;29;19956;-68
2022/01/25 10:16:11;;;;;;;;;;;;;;;3.19;100.00;100052.69;4824230;29;19960;-68
2022/01/25 10:18:38;;;;;;;;;;;;;;;3.28;100.00;100053.63;4822358;29;20346;-68
2022/01/25 10:21:09;;;;;;;;;;;;;;;3.33;100.00;100048.81;4821855;29;19955;-68
2022/01/25 10:23:36;;;;;;;;;;;;;;;3.35;100.00;100053.22;4821805;29;19954;-68
2022/01/25 10:26:04;;;;;;;;;;;;;;;3.42;100.00;100048.09;4821353;29;19967;-69
2022/01/25 10:28:32;;;;;;;;;;;;;;;3.43;100.00;100038.66;4821200;29;19954;-68
2022/01/25 10:31:01;;;;;;;;;;;;;;;3.53;100.00;100041.22;4821691;29;20253;-69
2022/01/25 10:33:33;;;;;;;;;;;;;;;3.51;100.00;100035.19;4819730;29;19968;-68
2022/01/25 10:36:09;;;;;;;;;;;;;;;3.55;100.00;100037.00;4819390;29;20233;-69
2022/01/25 10:38:37;;;;;;;;;;;;;;;3.55;100.00;100033.41;4821838;29;19980;-68
2022/01/25 10:41:06;;;;;;;;;;;;;;;3.49;100.00;100027.19;4821471;29;19962;-68
2022/01/25 10:43:34;;;;;;;;;;;;;;;3.54;100.00;100024.31;4821829;29;19959;-69
2022/01/25 10:46:04;;;;;;;;;;;;;;;3.55;100.00;100019.59;4821462;29;19951;-68
2022/01/25 10:48:31;;;;;;;;;;;;;;;3.52;100.00;100018.25;4821719;29;19981;-69
2022/01/25 10:51:03;;;;;;;;;;;;;;;3.59;100.00;100017.88;4821033;29;19958;-68
2022/01/25 10:53:31;;;;;;;;;;;;;;;3.62;100.00;100014.47;4821507;29;19990;-68
2022/01/25 10:56:00;;;;;;;;;;;;;;;3.55;100.00;100005.75;4821265;29;19955;-68
2022/01/25 10:58:28;;;;;;;;;;;;;;;3.62;100.00;100014.47;4821484;29;19956;-68
2022/01/25 11:00:56;;;;;;;;;;;;;;;3.61;100.00;100002.59;4822461;29;19953;-68
2022/01/25 11:03:31;;;;;;;;;;;;;;;3.57;100.00;100007.09;4821417;29;19961;-68
2022/01/25 11:06:20;;;;;;;;;;;;;;;3.62;100.00;99993.16;4821160;29;19970;-68
2022/01/25 11:08:49;;;;;;;;;;;;;;;3.65;100.00;99992.53;4822206;29;19952;-69
2022/01/25 11:11:48;;;;;;;;;;;;;;;3.55;100.00;99991.94;4821402;29;19957;-69
2022/01/25 11:17:02;;;;;;;;;;;;;;;3.50;100.00;99984.56;4821511;29;19956;-68
2022/01/25 11:19:30;;;;;;;;;;;;;;;3.52;100.00;99974.00;4820447;29;19978;-68
2022/01/25 11:21:59;;;;;;;;;;;;;;;3.59;100.00;99968.06;4820638;29;19954;-68
2022/01/25 11:24:29;;;;;;;;;;;;;;;3.64;100.00;99962.44;4817488;29;19951;-68
2022/01/25 11:26:59;;;;;;;;;;;;;;;3.74;100.00;99965.75;4820213;29;19950;-68
2022/01/25 11:29:27;;;;;;;;;;;;;;;3.78;100.00;99954.91;4819189;29;19960;-68
2022/01/25 11:31:55;;;;;;;;;;;;;;;3.83;100.00;99954.78;4820532;29;19960;-69
2022/01/25 11:34:26;;;;;;;;;;;;;;;3.87;100.00;99947.47;4818813;29;20347;-68
2022/01/25 11:36:55;;;;;;;;;;;;;;;3.82;100.00;99948.41;4821864;29;19967;-69
2022/01/25 11:39:24;;;;;;;;;;;;;;;3.80;100.00;99944.34;4820711;29;20719;-69
2022/01/25 11:42:00;;;;;;;;;;;;;;;3.78;100.00;99936.34;4820933;29;19961;-68
2022/01/25 11:44:27;;;;;;;;;;;;;;;3.81;100.00;99930.19;4821840;29;19954;-69
2022/01/25 11:46:56;;;;;;;;;;;;;;;3.90;100.00;99925.53;4822084;29;19971;-69
2022/01/25 11:49:24;;;;;;;;;;;;;;;3.96;100.00;99929.00;4819526;29;20146;-69
2022/01/25 11:52:10;;;;;;;;;;;;;;;3.98;100.00;99926.75;4820672;29;19950;-68
2022/01/25 11:54:37;;;;;;;;;;;;;;;3.95;100.00;99914.34;4821098;29;19950;-69
2022/01/25 11:57:12;;;;;;;;;;;;;;;4.03;100.00;99918.31;4836319;29;20282;-68
2022/01/25 11:59:41;;;;;;;;;;;;;;;4.09;100.00;99910.66;4820932;29;19973;-68
2022/01/25 12:02:08;;;;;;;;;;;;;;;4.07;100.00;99912.94;4820128;29;20327;-68
2022/01/25 12:04:42;;;;;;;;;;;;;;;4.03;100.00;99903.66;4819940;29;19951;-68
2022/01/25 12:07:23;;;;;;;;;;;;;;;4.04;100.00;99897.78;4821932;29;20957;-68
2022/01/25 12:10:02;;;;;;;;;;;;;;;4.03;100.00;99898.94;4820208;29;20541;-68
2022/01/25 12:12:29;;;;;;;;;;;;;;;4.07;100.00;99899.09;4820261;29;19980;-68
2022/01/25 12:14:57;;;;;;;;;;;;;;;4.12;100.00;99890.66;4820394;29;19958;-69
2022/01/25 12:17:33;;;;;;;;;;;;;;;4.13;100.00;99878.47;4821127;29;19967;-69
2022/01/25 12:20:03;;;;;;;;;;;;;;;4.23;100.00;99892.84;4820577;29;19986;-69
2022/01/25 12:22:42;;;;;;;;;;;;;;;4.23;100.00;99887.31;4819540;29;19968;-69
2022/01/25 12:25:28;;;;;;;;;;;;;;;4.18;100.00;99881.91;4820015;29;19953;-68
2022/01/25 12:27:59;;;;;;;;;;;;;;;4.13;100.00;99881.25;4820786;29;19958;-68
2022/01/25 12:30:26;;;;;;;;;;;;;;;4.07;100.00;99879.72;4818475;29;20763;-68
2022/01/25 12:33:13;;;;;;;;;;;;;;;4.09;100.00;99877.44;4818676;29;19961;-69
2022/01/25 12:35:42;;;;;;;;;;;;;;;3.83;100.00;99878.13;4820637;29;19959;-69
2022/01/25 12:38:19;;;;;;;;;;;;;;;4.01;100.00;99872.72;4820207;29;19961;-68
2022/01/25 12:41:06;;;;;;;;;;;;;;;3.97;100.00;99864.19;4820750;29;20811;-68
2022/01/25 12:43:40;;;;;;;;;;;;;;;4.04;100.00;99869.28;4818994;29;20349;-68
2022/01/25 12:46:16;;;;;;;;;;;;;;;4.05;100.00;99865.41;4820468;29;20418;-68
2022/01/25 12:48:47;;;;;;;;;;;;;;;4.11;100.00;99864.94;4820483;29;19966;-69
2022/01/25 12:51:16;;;;;;;;;;;;;;;4.13;100.00;99861.88;4820460;29;20362;-68
2022/01/25 12:53:45;;;;;;;;;;;;;;;4.13;100.00;99857.16;4819498;29;20246;-69
2022/01/25 12:56:17;;;;;;;;;;;;;;;4.05;100.00;99855.16;4821483;29;19952;-69
2022/01/25 12:58:46;;;;;;;;;;;;;;;4.09;100.00;99839.53;4819437;29;19969;-68
2022/01/25 13:01:14;;;;;;;;;;;;;;;3.98;100.00;99844.53;4818876;29;19981;-69
2022/01/25 13:03:50;;;;;;;;;;;;;;;3.89;100.00;99838.13;4820120;29;19960;-69
2022/01/25 13:06:19;;;;;;;;;;;;;;;3.96;100.00;99832.16;4820124;29;19964;-68
2022/01/25 13:08:59;;;;;;;;;;;;;;;4.01;100.00;99826.44;4819593;29;19953;-68
2022/01/25 13:16:58;;;;;;;;;;;;;;;3.91;100.00;99823.97;4818188;29;19982;-68
2022/01/25 13:19:35;;;;;;;;;;;;;;;3.83;100.00;99825.56;4818929;29;19976;-68
2022/01/25 13:22:07;;;;;;;;;;;;;;;3.87;100.00;99814.66;4820377;29;20555;-68
2022/01/25 13:24:45;;;;;;;;;;;;;;;3.93;100.00;99814.22;4819141;29;19960;-69
2022/01/25 13:27:14;;;;;;;;;;;;;;;3.96;100.00;99818.31;4819087;29;19958;-68
2022/01/25 13:32:31;;;;;;;;;;;;;;;4.01;100.00;99815.38;4818757;29;19954;-69
2022/01/25 13:35:03;;;;;;;;;;;;;;;4.02;100.00;99807.91;4819025;29;19952;-68
2022/01/25 13:37:32;;;;;;;;;;;;;;;4.02;100.00;99807.91;4818604;29;20451;-68
2022/01/25 13:40:02;;;;;;;;;;;;;;;4.02;100.00;99808.72;4818982;29;19970;-69
2022/01/25 13:47:59;;;;;;;;;;;;;;;3.86;100.00;99799.22;4814492;29;19969;-69
2022/01/25 13:50:28;;;;;;;;;;;;;;;3.92;100.00;99800.69;4817539;29;19961;-69
2022/01/25 13:52:55;;;;;;;;;;;;;;;3.98;100.00;99804.97;4817822;29;19955;-69
2022/01/25 13:55:23;;;;;;;;;;;;;;;3.89;100.00;99804.91;4817277;29;19962;-69
2022/01/25 13:57:51;;;;;;;;;;;;;;;3.81;100.00;99799.34;4819321;29;19960;-68
2022/01/25 14:00:20;;;;;;;;;;;;;;;3.83;100.00;99799.84;4815978;29;19971;-68
2022/01/25 14:02:48;;;;;;;;;;;;;;;3.82;100.00;99799.00;4817792;29;20344;-69
2022/01/25 14:05:16;;;;;;;;;;;;;;;3.80;100.00;99792.16;4815918;29;19956;-69
2022/01/25 14:07:46;;;;;;;;;;;;;;;3.83;100.00;99797.88;4817662;29;19962;-68
2022/01/25 14:10:21;;;;;;;;;;;;;;;3.87;100.00;99796.13;4816401;29;19957;-69
2022/01/25 14:23:56;;;;;;;;;;;;;;;3.89;100.00;99787.47;4815360;29;19961;-68
2022/01/25 14:26:27;;;;;;;;;;;;;;;3.85;100.00;99786.50;4819216;29;19956;-68
2022/01/25 14:29:05;;;;;;;;;;;;;;;3.87;100.00;99784.22;4819715;29;20396;-68
2022/01/25 14:31:38;;;;;;;;;;;;;;;3.88;100.00;99780.34;4819411;29;19990;-68
2022/01/25 14:34:06;;;;;;;;;;;;;;;3.85;100.00;99781.78;4820158;29;19959;-68
2022/01/25 14:36:33;;;;;;;;;;;;;;;3.85;100.00;99781.78;4820132;29;19960;-69
2022/01/25 14:39:02;;;;;;;;;;;;;;;3.69;100.00;99779.75;4822678;29;19962;-68
2022/01/25 14:41:31;;;;;;;;;;;;;;;3.66;100.00;99777.59;4821858;29;19983;-68
2022/01/25 14:44:05;;;;;;;;;;;;;;;3.72;100.00;99774.38;4822339;29;19963;-68
2022/01/25 14:46:48;;;;;;;;;;;;;;;3.76;100.00;99766.28;4822542;29;20010;-68
2022/01/25 14:49:29;;;;;;;;;;;;;;;3.81;100.00;99768.91;4821278;29;19953;-68
2022/01/25 14:52:04;;;;;;;;;;;;;;;3.81;100.00;99768.91;4821944;29;19965;-68
2022/01/25 14:54:33;;;;;;;;;;;;;;;3.75;100.00;99773.75;4822010;29;19959;-68
2022/01/25 14:57:05;;;;;;;;;;;;;;;3.73;100.00;99777.97;4822403;29;19959;-68
2022/01/25 14:59:38;;;;;;;;;;;;;;;3.70;100.00;99773.06;4820821;29;19960;-68
2022/01/25 15:02:07;;;;;;;;;;;;;;;3.69;100.00;99763.94;4822007;29;19971;-68
2022/01/25 15:04:37;;;;;;;;;;;;;;;3.72;100.00;99776.31;4823588;29;19956;-68
2022/01/25 15:07:04;;;;;;;;;;;;;;;3.71;100.00;99764.47;4820892;29;20269;-68
2022/01/25 15:09:32;;;;;;;;;;;;;;;3.62;100.00;99769.09;4820142;29;19981;-68
2022/01/25 15:12:00;;;;;;;;;;;;;;;3.70;100.00;99776.66;4821814;29;19951;-68
2022/01/25 15:14:37;;;;;;;;;;;;;;;3.74;100.00;99769.34;4821073;29;19967;-68
2022/01/25 15:17:04;;;;;;;;;;;;;;;3.70;100.00;99770.28;4823382;29;19961;-68
2022/01/25 15:19:31;;;;;;;;;;;;;;;3.67;100.00;99771.75;4822098;29;19976;-68
2022/01/25 15:21:59;;;;;;;;;;;;;;;3.69;100.00;99769.47;4821159;29;19983;-68
2022/01/25 15:24:27;;;;;;;;;;;;;;;3.66;100.00;99766.53;4820643;29;19961;-68
2022/01/25 15:26:57;;;;;;;;;;;;;;;3.68;100.00;99761.50;4820699;29;19951;-68
2022/01/25 15:29:24;;;;;;;;;;;;;;;3.68;100.00;99764.25;4820211;29;19952;-68
2022/01/25 15:31:54;;;;;;;;;;;;;;;3.66;100.00;99766.53;4820285;29;19962;-68
2022/01/25 15:34:22;;;;;;;;;;;;;;;3.69;100.00;99761.16;4821961;29;20329;-68
2022/01/25 15:36:49;;;;;;;;;;;;;;;3.68;100.00;99764.25;4821485;29;19960;-69
2022/01/25 15:39:17;;;;;;;;;;;;;;;3.68;100.00;99772.56;4820802;29;19963;-69
2022/01/25 15:41:46;;;;;;;;;;;;;;;3.60;100.00;99773.31;4821065;29;20403;-69
2022/01/25 15:44:15;;;;;;;;;;;;;;;3.60;100.00;99771.38;4822191;29;19959;-69
2022/01/25 15:49:14;;;;;;;;;;;;;;;3.59;100.00;99769.75;4819628;29;19952;-68
2022/01/25 15:51:42;;;;;;;;;;;;;;;3.55;100.00;99765.97;4821003;29;19966;-68
2022/01/25 15:54:09;;;;;;;;;;;;;;;3.49;100.00;99769.19;4821533;29;19951;-68
2022/01/25 15:56:37;;;;;;;;;;;;;;;3.42;100.00;99774.34;4821035;29;20404;-68
2022/01/25 15:59:04;;;;;;;;;;;;;;;3.37;100.00;99771.72;4820534;29;19954;-68
2022/01/25 16:01:51;;;;;;;;;;;;;;;3.23;100.00;99780.06;4820439;29;19972;-68
2022/01/25 16:04:19;;;;;;;;;;;;;;;3.21;100.00;99777.63;4820435;29;19960;-68
2022/01/25 16:06:47;;;;;;;;;;;;;;;3.24;100.00;99779.75;4819849;29;19956;-68
2022/01/25 16:09:14;;;;;;;;;;;;;;;3.25;100.00;99778.63;4820058;29;19955;-68
2022/01/25 16:11:43;;;;;;;;;;;;;;;3.21;100.00;99787.84;4821177;29;20276;-68
2022/01/25 16:14:11;;;;;;;;;;;;;;;3.23;100.00;99785.59;4820811;29;19956;-68
2022/01/25 16:16:38;;;;;;;;;;;;;;;3.26;100.00;99784.97;4818345;29;19961;-68
2022/01/25 16:19:16;;;;;;;;;;;;;;;3.31;100.00;99787.59;4820506;29;19980;-68
2022/01/25 16:21:43;;;;;;;;;;;;;;;3.28;100.00;99779.94;4818952;29;19995;-68
2022/01/25 16:24:10;;;;;;;;;;;;;;;3.27;100.00;99781.09;4819767;29;19952;-68
2022/01/25 16:26:40;;;;;;;;;;;;;;;3.21;100.00;99785.91;4821886;29;19963;-68
2022/01/25 16:29:07;;;;;;;;;;;;;;;3.09;100.00;99782.88;4834141;29;19957;-68
2022/01/25 16:31:37;;;;;;;;;;;;;;;2.98;100.00;99786.22;4820700;29;20383;-68
2022/01/25 16:34:05;;;;;;;;;;;;;;;2.96;100.00;99791.25;4819303;29;19955;-68
2022/01/25 16:36:33;;;;;;;;;;;;;;;2.89;100.00;99796.34;4820070;29;19964;-68
2022/01/25 16:39:01;;;;;;;;;;;;;;;2.84;100.00;99794.53;4819823;29;19956;-68
2022/01/25 16:41:28;;;;;;;;;;;;;;;2.95;100.00;99795.94;4819942;29;19985;-68
2022/01/25 16:43:55;;;;;;;;;;;;;;;2.98;100.00;99794.50;4820799;29;20007;-68
2022/01/25 16:46:23;;;;;;;;;;;;;;;2.95;100.00;99798.69;4819563;29;19952;-68
2022/01/25 16:48:50;;;;;;;;;;;;;;;2.96;100.00;99797.56;4820229;29;19960;-68
2022/01/25 16:51:18;;;;;;;;;;;;;;;2.96;100.00;99794.78;4819460;29;19957;-69
2022/01/25 16:53:46;;;;;;;;;;;;;;;2.97;100.00;99801.16;4819770;29;19959;-68
2022/01/25 16:56:15;;;;;;;;;;;;;;;2.95;100.00;99795.13;4818812;29;19959;-68
2022/01/25 16:58:42;;;;;;;;;;;;;;;2.99;100.00;99808.00;4817018;29;19961;-68
2022/01/25 17:01:10;;;;;;;;;;;;;;;2.94;100.00;99804.53;4824216;29;19976;-68
2022/01/25 17:03:37;;;;;;;;;;;;;;;2.97;100.00;99806.66;4826307;29;19963;-68
2022/01/25 17:06:05;;;;;;;;;;;;;;;2.99;100.00;99796.94;4827854;29;19959;-68
2022/01/25 17:08:33;;;;;;;;;;;;;;;2.99;100.00;99802.47;4828390;29;19964;-68
2022/01/25 17:11:01;;;;;;;;;;;;;;;2.89;100.00;99807.41;4830261;29;19961;-68
2022/01/25 17:13:28;;;;;;;;;;;;;;;2.82;100.00;99796.78;4828956;29;20259;-68
2022/01/25 17:15:58;;;;;;;;;;;;;;;2.84;100.00;99799.22;4832958;29;19963;-68
2022/01/25 17:18:25;;;;;;;;;;;;;;;2.82;100.00;99798.72;4828234;29;19967;-68
2022/01/25 17:20:53;;;;;;;;;;;;;;;2.83;100.00;99795.66;4831235;29;19960;-68
2022/01/25 17:23:20;;;;;;;;;;;;;;;2.77;100.00;99802.41;4844227;29;20257;-68
2022/01/25 17:25:47;;;;;;;;;;;;;;;2.75;100.00;99801.91;4833321;29;19968;-68
2022/01/25 17:28:15;;;;;;;;;;;;;;;2.78;100.00;99801.31;4829996;29;19961;-68
2022/01/25 17:30:42;;;;;;;;;;;;;;;2.74;100.00;99796.72;4833848;29;19953;-68
2022/01/25 17:33:09;;;;;;;;;;;;;;;2.70;100.00;99792.91;4827701;29;19983;-68
2022/01/25 17:35:37;;;;;;;;;;;;;;;2.65;100.00;99797.44;4827399;29;19958;-68
2022/01/25 17:38:04;;;;;;;;;;;;;;;2.67;100.00;99802.63;4827292;29;19961;-68
2022/01/25 17:40:31;;;;;;;;;;;;;;;2.72;100.00;99804.47;4827031;29;20529;-68
2022/01/25 17:42:59;;;;;;;;;;;;;;;2.64;100.00;99797.75;4827134;29;19977;-68
2022/01/25 17:45:26;;;;;;;;;;;;;;;2.63;100.00;99796.13;4828388;29;19954;-68
2022/01/25 17:47:54;;;;;;;;;;;;;;;2.65;100.00;99793.84;4828571;29;19954;-68
2022/01/25 17:50:21;;;;;;;;;;;;;;;2.57;100.00;99792.63;4827168;29;20246;-68
2022/01/25 17:52:49;;;;;;;;;;;;;;;2.56;100.00;99799.31;4823875;29;19958;-68
2022/01/25 17:55:16;;;;;;;;;;;;;;;2.53;100.00;99799.09;4827206;29;19955;-68
2022/01/25 17:57:43;;;;;;;;;;;;;;;2.59;100.00;99804.19;4830476;29;19960;-68
2022/01/25 18:00:13;;;;;;;;;;;;;;;2.57;100.00;99805.63;4832973;29;20368;-68
2022/01/25 18:02:42;;;;;;;;;;;;;;;2.54;100.00;99809.03;4831064;29;19977;-68
2022/01/25 18:05:10;;;;;;;;;;;;;;;2.51;100.00;99806.88;4831968;29;20257;-68
2022/01/25 18:07:38;;;;;;;;;;;;;;;2.50;100.00;99808.81;4826492;29;19953;-68
2022/01/25 18:10:06;;;;;;;;;;;;;;;2.49;100.00;99809.94;4827819;29;19959;-69
2022/01/25 18:12:34;;;;;;;;;;;;;;;2.45;100.00;99808.09;4835020;29;20024;-68
2022/01/25 18:15:01;;;;;;;;;;;;;;;2.42;100.00;99805.97;4834052;29;20347;-68
2022/01/25 18:17:29;;;;;;;;;;;;;;;2.39;100.00;99807.41;4838293;29;19959;-68
2022/01/25 18:19:56;;;;;;;;;;;;;;;2.44;100.00;99814.75;4832067;29;19979;-68
2022/01/25 18:22:34;;;;;;;;;;;;;;;2.53;100.00;99816.47;4829361;29;19970;-68
2022/01/25 18:25:08;;;;;;;;;;;;;;;2.62;100.00;99816.56;4837923;29;19961;-68
2022/01/25 18:27:35;;;;;;;;;;;;;;;2.65;100.00;99818.72;4836374;29;19952;-68
2022/01/25 18:30:05;;;;;;;;;;;;;;;2.72;100.00;99821.03;4835745;29;19954;-68
2022/01/25 18:32:33;;;;;;;;;;;;;;;2.75;100.00;99820.44;4831453;29;19949;-68
2022/01/25 18:35:01;;;;;;;;;;;;;;;2.68;100.00;99820.84;4832418;29;19953;-68
2022/01/25 18:37:28;;;;;;;;;;;;;;;2.66;100.00;99815.63;4841697;29;19969;-68
2022/01/25 18:39:55;;;;;;;;;;;;;;;2.73;100.00;99811.63;4831450;29;19958;-68
2022/01/25 18:42:23;;;;;;;;;;;;;;;2.74;100.00;99816.06;4831160;29;19966;-68
2022/01/25 18:44:50;;;;;;;;;;;;;;;2.76;100.00;99822.91;4831428;29;19955;-68
2022/01/25 18:47:18;;;;;;;;;;;;;;;2.75;100.00;99815.72;4830914;29;19961;-68
2022/01/25 18:49:45;;;;;;;;;;;;;;;2.75;100.00;99820.44;4831442;29;19950;-68
2022/01/25 18:52:12;;;;;;;;;;;;;;;2.74;100.00;99819.59;4837055;29;19959;-68
2022/01/25 18:54:41;;;;;;;;;;;;;;;2.69;100.00;99821.69;4834974;29;19954;-68
2022/01/25 18:57:09;;;;;;;;;;;;;;;2.64;100.00;99819.84;4830484;29;19957;-68
2022/01/25 18:59:37;;;;;;;;;;;;;;;2.72;100.00;99813.56;4831547;29;19956;-68
2022/01/25 19:02:19;;;;;;;;;;;;;;;2.76;100.00;99811.03;4829881;29;19970;-68
2022/01/25 19:04:49;;;;;;;;;;;;;;;2.74;100.00;99808.56;4831312;29;20337;-68
2022/01/25 19:07:16;;;;;;;;;;;;;;;2.79;100.00;99802.13;4805444;29;19954;-69
2022/01/25 19:09:43;;;;;;;;;;;;;;;2.80;100.00;99803.75;4827798;29;19960;-68
2022/01/25 19:12:11;;;;;;;;;;;;;;;2.79;100.00;99802.13;4830822;29;20366;-68
2022/01/25 19:14:38;;;;;;;;;;;;;;;2.73;100.00;99804.19;4828660;29;19957;-69
2022/01/25 19:17:06;;;;;;;;;;;;;;;2.71;100.00;99798.16;4827215;29;19954;-68
2022/01/25 19:19:33;;;;;;;;;;;;;;;2.70;100.00;99792.91;4831643;29;19973;-68
2022/01/25 19:22:01;;;;;;;;;;;;;;;2.64;100.00;99787.50;4832785;29;19952;-68
2022/01/25 19:24:29;;;;;;;;;;;;;;;2.65;100.00;99791.09;4825620;29;20380;-68
2022/01/25 19:26:57;;;;;;;;;;;;;;;2.61;100.00;99784.56;4832183;29;19963;-67
2022/01/25 19:29:25;;;;;;;;;;;;;;;2.64;100.00;99783.94;4843299;29;19951;-68
2022/01/25 19:31:53;;;;;;;;;;;;;;;2.66;100.00;99790.78;4830558;29;19956;-69
2022/01/25 19:34:21;;;;;;;;;;;;;;;2.63;100.00;99783.13;4831573;29;19960;-68
2022/01/25 19:36:49;;;;;;;;;;;;;;;2.73;100.00;99784.84;4843682;29;19964;-68
2022/01/25 19:39:16;;;;;;;;;;;;;;;2.73;100.00;99784.84;4830857;29;19957;-68
2022/01/25 19:41:46;;;;;;;;;;;;;;;2.70;100.00;99774.41;4830673;29;19962;-68
2022/01/25 19:44:14;;;;;;;;;;;;;;;2.66;100.00;99776.16;4830676;29;19969;-68